sensor_id;sensor_type;location;lat;lon;timestamp;temperature;humidity
37242;DHT22;23135;51.078;12.108;2023-03-11T00:00:29;1.40;99.90
37242;DHT22;23135;51.078;12.108;2023-03-11T00:02:56;1.30;99.90
37242;DHT22;23135;51.078;12.108;2023-03-11T00:05:25;1.30;99.90
37242;DHT22;23135;51.078;12.108;2023-03-11T00:07:51;1.30;99.90
37242;DHT22;23135;51.078;12.108;2023-03-11T00:10:24;1.20;99.90
37242;DHT22;23135;51.078;12.108;2023-03-11T00:12:50;1.20;99.90
37242;DHT22;23135;51.078;12.108;2023-03-11T00:15:16;1.20;99.90
37242;DHT22;23135;51.078;12.108;2023-03-11T00:17:42;1.10;99.90
37242;DHT22;23135;51.078;12.108;2023-03-11T00:20:17;1.10;99.90
37242;DHT22;23135;51.078;12.108;2023-03-11T00:22:43;1.00;99.90
37242;DHT22;23135;51.078;12.108;2023-03-11T00:25:10;1.00;99.90
37242;DHT22;23135;51.078;12.108;2023-03-11T00:27:36;1.00;99.90
37242;DHT22;23135;51.078;12.108;2023-03-11T00:30:02;1.00;99.90
37242;DHT22;23135;51.078;12.108;2023-03-11T00:32:28;0.90;99.90
37242;DHT22;23135;51.078;12.108;2023-03-11T00:34:53;0.90;99.90
37242;DHT22;23135;51.078;12.108;2023-03-11T00:37:19;0.90;99.90
37242;DHT22;23135;51.078;12.108;2023-03-11T00:39:45;0.90;99.90
37242;DHT22;23135;51.078;12.108;2023-03-11T00:42:10;0.80;99.90
37242;DHT22;23135;51.078;12.108;2023-03-11T00:44:36;0.80;99.90
37242;DHT22;23135;51.078;12.108;2023-03-11T00:47:01;0.70;99.90
37242;DHT22;23135;51.078;12.108;2023-03-11T00:49:27;0.70;99.90
37242;DHT22;23135;51.078;12.108;2023-03-11T00:51:52;0.70;99.90
37242;DHT22;23135;51.078;12.108;2023-03-11T00:54:18;0.60;99.90
37242;DHT22;23135;51.078;12.108;2023-03-11T00:56:43;0.60;99.90
37242;DHT22;23135;51.078;12.108;2023-03-11T00:59:09;0.50;99.90
37242;DHT22;23135;51.078;12.108;2023-03-11T01:01:34;0.50;99.90
37242;DHT22;23135;51.078;12.108;2023-03-11T01:04:00;0.50;99.90
37242;DHT22;23135;51.078;12.108;2023-03-11T01:06:25;0.50;99.90
37242;DHT22;23135;51.078;12.108;2023-03-11T01:08:51;0.50;99.90
37242;DHT22;23135;51.078;12.108;2023-03-11T01:11:16;0.50;99.90
37242;DHT22;23135;51.078;12.108;2023-03-11T01:13:42;0.40;99.90
37242;DHT22;23135;51.078;12.108;2023-03-11T01:16:08;0.40;99.90
37242;DHT22;23135;51.078;12.108;2023-03-11T01:18:33;0.40;99.90
37242;DHT22;23135;51.078;12.108;2023-03-11T01:20:59;0.40;99.90
37242;DHT22;23135;51.078;12.108;2023-03-11T01:23:25;0.40;99.90
37242;DHT22;23135;51.078;12.108;2023-03-11T01:28:18;0.40;99.90
37242;DHT22;23135;51.078;12.108;2023-03-11T01:30:44;0.40;99.90
37242;DHT22;23135;51.078;12.108;2023-03-11T01:33:14;0.40;99.90
37242;DHT22;23135;51.078;12.108;2023-03-11T01:35:41;0.40;99.90
37242;DHT22;23135;51.078;12.108;2023-03-11T01:38:08;0.40;99.90
37242;DHT22;23135;51.078;12.108;2023-03-11T01:40:43;0.40;99.90
37242;DHT22;23135;51.078;12.108;2023-03-11T01:48:53;0.30;99.90
37242;DHT22;23135;51.078;12.108;2023-03-11T01:51:37;0.30;99.90
37242;DHT22;23135;51.078;12.108;2023-03-11T01:54:09;0.30;99.90
37242;DHT22;23135;51.078;12.108;2023-03-11T01:56:36;0.30;99.90
37242;DHT22;23135;51.078;12.108;2023-03-11T01:59:03;0.30;99.90
37242;DHT22;23135;51.078;12.108;2023-03-11T02:01:30;0.30;99.90
37242;DHT22;23135;51.078;12.108;2023-03-11T02:03:56;0.20;99.90
37242;DHT22;23135;51.078;12.108;2023-03-11T02:06:23;0.20;99.90
37242;DHT22;23135;51.078;12.108;2023-03-11T02:08:50;0.20;99.90
37242;DHT22;23135;51.078;12.108;2023-03-11T02:11:19;0.20;99.90
37242;DHT22;23135;51.078;12.108;2023-03-11T02:13:47;0.20;99.90
37242;DHT22;23135;51.078;12.108;2023-03-11T02:16:13;0.20;99.90
37242;DHT22;23135;51.078;12.108;2023-03-11T02:18:40;0.20;99.90
37242;DHT22;23135;51.078;12.108;2023-03-11T02:21:26;0.20;99.90
37242;DHT22;23135;51.078;12.108;2023-03-11T02:24:15;0.20;99.90
37242;DHT22;23135;51.078;12.108;2023-03-11T02:27:15;0.20;99.90
37242;DHT22;23135;51.078;12.108;2023-03-11T02:29:43;0.20;99.90
37242;DHT22;23135;51.078;12.108;2023-03-11T02:32:11;0.20;99.90
37242;DHT22;23135;51.078;12.108;2023-03-11T02:34:38;0.20;99.90
37242;DHT22;23135;51.078;12.108;2023-03-11T02:37:06;0.10;99.90
37242;DHT22;23135;51.078;12.108;2023-03-11T02:39:35;0.10;99.90
37242;DHT22;23135;51.078;12.108;2023-03-11T02:42:04;0.10;99.90
37242;DHT22;23135;51.078;12.108;2023-03-11T02:44:31;0.10;99.90
37242;DHT22;23135;51.078;12.108;2023-03-11T02:46:57;0.10;99.90
37242;DHT22;23135;51.078;12.108;2023-03-11T02:49:23;0.10;99.90
37242;DHT22;23135;51.078;12.108;2023-03-11T02:51:49;0.10;99.90
37242;DHT22;23135;51.078;12.108;2023-03-11T02:54:16;0.10;99.90
37242;DHT22;23135;51.078;12.108;2023-03-11T02:56:42;0.10;99.90
37242;DHT22;23135;51.078;12.108;2023-03-11T02:59:07;0.10;99.90
37242;DHT22;23135;51.078;12.108;2023-03-11T03:01:33;0.10;99.90
37242;DHT22;23135;51.078;12.108;2023-03-11T03:03:59;0.10;99.90
37242;DHT22;23135;51.078;12.108;2023-03-11T03:06:24;0.10;99.90
37242;DHT22;23135;51.078;12.108;2023-03-11T03:08:50;0.10;99.90
37242;DHT22;23135;51.078;12.108;2023-03-11T03:11:16;0.10;99.90
37242;DHT22;23135;51.078;12.108;2023-03-11T03:13:41;0.10;99.90
37242;DHT22;23135;51.078;12.108;2023-03-11T03:16:07;0.10;99.90
37242;DHT22;23135;51.078;12.108;2023-03-11T03:18:32;0.10;99.90
37242;DHT22;23135;51.078;12.108;2023-03-11T03:20:58;0.10;99.90
37242;DHT22;23135;51.078;12.108;2023-03-11T03:23:24;0.10;99.90
37242;DHT22;23135;51.078;12.108;2023-03-11T03:25:49;0.10;99.90
37242;DHT22;23135;51.078;12.108;2023-03-11T03:28:15;0.10;99.90
37242;DHT22;23135;51.078;12.108;2023-03-11T03:30:41;0.10;99.90
37242;DHT22;23135;51.078;12.108;2023-03-11T03:33:07;0.10;99.90
37242;DHT22;23135;51.078;12.108;2023-03-11T03:35:33;0.10;99.90
37242;DHT22;23135;51.078;12.108;2023-03-11T03:37:59;0.10;99.90
37242;DHT22;23135;51.078;12.108;2023-03-11T03:40:25;0.10;99.90
37242;DHT22;23135;51.078;12.108;2023-03-11T03:42:51;0.10;99.90
37242;DHT22;23135;51.078;12.108;2023-03-11T03:45:17;0.10;99.90
37242;DHT22;23135;51.078;12.108;2023-03-11T03:47:42;0.10;99.90
37242;DHT22;23135;51.078;12.108;2023-03-11T03:50:09;0.10;99.90
37242;DHT22;23135;51.078;12.108;2023-03-11T03:52:36;0.10;99.90
37242;DHT22;23135;51.078;12.108;2023-03-11T03:55:02;0.10;99.90
37242;DHT22;23135;51.078;12.108;2023-03-11T03:57:28;0.10;99.90
37242;DHT22;23135;51.078;12.108;2023-03-11T03:59:54;0.10;99.90
37242;DHT22;23135;51.078;12.108;2023-03-11T04:02:20;0.10;99.90
37242;DHT22;23135;51.078;12.108;2023-03-11T04:04:46;0.10;99.90
37242;DHT22;23135;51.078;12.108;2023-03-11T04:07:12;0.10;99.90
37242;DHT22;23135;51.078;12.108;2023-03-11T04:09:39;0.00;99.90
37242;DHT22;23135;51.078;12.108;2023-03-11T04:12:05;0.00;99.90
37242;DHT22;23135;51.078;12.108;2023-03-11T04:14:31;0.00;99.90
37242;DHT22;23135;51.078;12.108;2023-03-11T04:16:57;0.00;99.90
37242;DHT22;23135;51.078;12.108;2023-03-11T04:19:23;0.00;99.90
37242;DHT22;23135;51.078;12.108;2023-03-11T04:21:48;0.00;99.90
37242;DHT22;23135;51.078;12.108;2023-03-11T04:24:16;0.00;99.90
37242;DHT22;23135;51.078;12.108;2023-03-11T04:26:42;0.00;99.90
37242;DHT22;23135;51.078;12.108;2023-03-11T04:29:07;0.00;99.90
37242;DHT22;23135;51.078;12.108;2023-03-11T04:31:33;-0.10;99.90
37242;DHT22;23135;51.078;12.108;2023-03-11T04:33:58;-0.10;99.90
37242;DHT22;23135;51.078;12.108;2023-03-11T04:36:24;0.00;99.90
37242;DHT22;23135;51.078;12.108;2023-03-11T04:38:50;0.00;99.90
37242;DHT22;23135;51.078;12.108;2023-03-11T04:41:15;0.00;99.90
37242;DHT22;23135;51.078;12.108;2023-03-11T04:43:41;0.00;99.90
37242;DHT22;23135;51.078;12.108;2023-03-11T04:46:06;0.00;99.90
37242;DHT22;23135;51.078;12.108;2023-03-11T04:48:32;0.00;99.90
37242;DHT22;23135;51.078;12.108;2023-03-11T04:50:57;0.00;99.90
37242;DHT22;23135;51.078;12.108;2023-03-11T04:53:23;0.00;99.90
37242;DHT22;23135;51.078;12.108;2023-03-11T04:55:49;-0.10;99.90
37242;DHT22;23135;51.078;12.108;2023-03-11T04:58:15;0.00;99.90
37242;DHT22;23135;51.078;12.108;2023-03-11T05:00:40;0.00;99.90
37242;DHT22;23135;51.078;12.108;2023-03-11T05:03:06;0.00;99.90
37242;DHT22;23135;51.078;12.108;2023-03-11T05:05:31;0.00;99.90
37242;DHT22;23135;51.078;12.108;2023-03-11T05:07:57;0.00;99.90
37242;DHT22;23135;51.078;12.108;2023-03-11T05:10:23;0.00;99.90
37242;DHT22;23135;51.078;12.108;2023-03-11T05:12:49;0.00;99.90
37242;DHT22;23135;51.078;12.108;2023-03-11T05:15:15;0.00;99.90
37242;DHT22;23135;51.078;12.108;2023-03-11T05:17:40;0.00;99.90
37242;DHT22;23135;51.078;12.108;2023-03-11T05:20:07;0.00;99.90
37242;DHT22;23135;51.078;12.108;2023-03-11T05:22:34;0.00;99.90
37242;DHT22;23135;51.078;12.108;2023-03-11T05:24:59;-0.10;99.90
37242;DHT22;23135;51.078;12.108;2023-03-11T05:27:25;0.00;99.90
37242;DHT22;23135;51.078;12.108;2023-03-11T05:29:50;0.00;99.90
37242;DHT22;23135;51.078;12.108;2023-03-11T05:32:16;0.00;99.90
37242;DHT22;23135;51.078;12.108;2023-03-11T05:34:44;-0.10;99.90
37242;DHT22;23135;51.078;12.108;2023-03-11T05:37:10;0.00;99.90
37242;DHT22;23135;51.078;12.108;2023-03-11T05:39:36;0.00;99.90
37242;DHT22;23135;51.078;12.108;2023-03-11T05:42:03;-0.10;99.90
37242;DHT22;23135;51.078;12.108;2023-03-11T05:44:29;-0.10;99.90
37242;DHT22;23135;51.078;12.108;2023-03-11T05:46:54;0.00;99.90
37242;DHT22;23135;51.078;12.108;2023-03-11T05:49:20;0.00;99.90
37242;DHT22;23135;51.078;12.108;2023-03-11T05:51:46;0.00;99.90
37242;DHT22;23135;51.078;12.108;2023-03-11T05:54:12;0.00;99.90
37242;DHT22;23135;51.078;12.108;2023-03-11T05:56:40;0.00;99.90
37242;DHT22;23135;51.078;12.108;2023-03-11T05:59:06;0.00;99.90
37242;DHT22;23135;51.078;12.108;2023-03-11T06:01:32;0.00;99.90
37242;DHT22;23135;51.078;12.108;2023-03-11T06:03:59;0.00;99.90
37242;DHT22;23135;51.078;12.108;2023-03-11T06:06:25;0.00;99.90
37242;DHT22;23135;51.078;12.108;2023-03-11T06:08:51;0.00;99.90
37242;DHT22;23135;51.078;12.108;2023-03-11T06:11:17;0.00;99.90
37242;DHT22;23135;51.078;12.108;2023-03-11T06:13:42;0.00;99.90
37242;DHT22;23135;51.078;12.108;2023-03-11T06:16:08;0.00;99.90
37242;DHT22;23135;51.078;12.108;2023-03-11T06:18:34;0.00;99.90
37242;DHT22;23135;51.078;12.108;2023-03-11T06:21:01;0.10;99.90
37242;DHT22;23135;51.078;12.108;2023-03-11T06:23:27;0.00;99.90
37242;DHT22;23135;51.078;12.108;2023-03-11T06:25:57;0.10;99.90
37242;DHT22;23135;51.078;12.108;2023-03-11T06:28:23;0.10;99.90
37242;DHT22;23135;51.078;12.108;2023-03-11T06:30:49;0.10;99.90
37242;DHT22;23135;51.078;12.108;2023-03-11T06:33:14;0.10;99.90
37242;DHT22;23135;51.078;12.108;2023-03-11T06:35:40;0.10;99.90
37242;DHT22;23135;51.078;12.108;2023-03-11T06:38:06;0.10;99.90
37242;DHT22;23135;51.078;12.108;2023-03-11T06:40:31;0.10;99.90
37242;DHT22;23135;51.078;12.108;2023-03-11T06:42:57;0.10;99.90
37242;DHT22;23135;51.078;12.108;2023-03-11T06:45:23;0.10;99.90
37242;DHT22;23135;51.078;12.108;2023-03-11T06:47:49;0.10;99.90
37242;DHT22;23135;51.078;12.108;2023-03-11T06:50:14;0.20;99.90
37242;DHT22;23135;51.078;12.108;2023-03-11T06:52:40;0.10;99.90
37242;DHT22;23135;51.078;12.108;2023-03-11T06:55:06;0.10;99.90
37242;DHT22;23135;51.078;12.108;2023-03-11T06:57:32;0.20;99.90
37242;DHT22;23135;51.078;12.108;2023-03-11T06:59:58;0.20;99.90
37242;DHT22;23135;51.078;12.108;2023-03-11T07:02:23;0.20;99.90
37242;DHT22;23135;51.078;12.108;2023-03-11T07:04:49;0.20;99.90
37242;DHT22;23135;51.078;12.108;2023-03-11T07:07:15;0.20;99.90
37242;DHT22;23135;51.078;12.108;2023-03-11T07:09:40;0.20;99.90
37242;DHT22;23135;51.078;12.108;2023-03-11T07:12:06;0.20;99.90
37242;DHT22;23135;51.078;12.108;2023-03-11T07:14:32;0.20;99.90
37242;DHT22;23135;51.078;12.108;2023-03-11T07:16:57;0.20;99.90
37242;DHT22;23135;51.078;12.108;2023-03-11T07:19:23;0.30;99.90
37242;DHT22;23135;51.078;12.108;2023-03-11T07:21:48;0.30;99.90
37242;DHT22;23135;51.078;12.108;2023-03-11T07:24:14;0.20;99.90
37242;DHT22;23135;51.078;12.108;2023-03-11T07:26:40;0.20;99.90
37242;DHT22;23135;51.078;12.108;2023-03-11T07:29:06;0.30;99.90
37242;DHT22;23135;51.078;12.108;2023-03-11T07:31:33;0.30;99.90
37242;DHT22;23135;51.078;12.108;2023-03-11T07:34:01;0.30;99.90
37242;DHT22;23135;51.078;12.108;2023-03-11T07:36:28;0.30;99.90
37242;DHT22;23135;51.078;12.108;2023-03-11T07:38:55;0.30;99.90
37242;DHT22;23135;51.078;12.108;2023-03-11T07:41:24;0.30;99.90
37242;DHT22;23135;51.078;12.108;2023-03-11T07:43:53;0.40;99.90
37242;DHT22;23135;51.078;12.108;2023-03-11T07:46:21;0.40;99.90
37242;DHT22;23135;51.078;12.108;2023-03-11T07:48:47;0.40;99.90
37242;DHT22;23135;51.078;12.108;2023-03-11T07:51:24;0.40;99.90
37242;DHT22;23135;51.078;12.108;2023-03-11T07:53:52;0.40;99.90
37242;DHT22;23135;51.078;12.108;2023-03-11T07:56:18;0.40;99.90
37242;DHT22;23135;51.078;12.108;2023-03-11T07:58:45;0.40;99.90
37242;DHT22;23135;51.078;12.108;2023-03-11T08:01:13;0.40;99.90
37242;DHT22;23135;51.078;12.108;2023-03-11T08:03:43;0.40;99.90
37242;DHT22;23135;51.078;12.108;2023-03-11T08:06:20;0.40;99.90
37242;DHT22;23135;51.078;12.108;2023-03-11T08:08:48;0.40;99.90
37242;DHT22;23135;51.078;12.108;2023-03-11T08:11:14;0.40;99.90
37242;DHT22;23135;51.078;12.108;2023-03-11T08:13:41;0.40;99.90
37242;DHT22;23135;51.078;12.108;2023-03-11T08:16:09;0.40;99.90
37242;DHT22;23135;51.078;12.108;2023-03-11T08:18:34;0.50;99.90
37242;DHT22;23135;51.078;12.108;2023-03-11T08:21:06;0.50;99.90
37242;DHT22;23135;51.078;12.108;2023-03-11T08:23:33;0.50;99.90
37242;DHT22;23135;51.078;12.108;2023-03-11T08:26:02;0.60;99.90
37242;DHT22;23135;51.078;12.108;2023-03-11T08:28:28;0.60;99.90
37242;DHT22;23135;51.078;12.108;2023-03-11T08:30:53;0.70;99.90
37242;DHT22;23135;51.078;12.108;2023-03-11T08:33:19;0.70;99.90
37242;DHT22;23135;51.078;12.108;2023-03-11T08:35:44;0.80;99.90
37242;DHT22;23135;51.078;12.108;2023-03-11T08:38:10;0.80;99.90
37242;DHT22;23135;51.078;12.108;2023-03-11T08:40:36;0.80;99.90
37242;DHT22;23135;51.078;12.108;2023-03-11T08:43:01;0.90;99.90
37242;DHT22;23135;51.078;12.108;2023-03-11T08:45:27;1.00;99.90
37242;DHT22;23135;51.078;12.108;2023-03-11T08:47:52;1.10;99.90
37242;DHT22;23135;51.078;12.108;2023-03-11T08:50:18;1.10;99.90
37242;DHT22;23135;51.078;12.108;2023-03-11T08:52:44;1.10;99.90
37242;DHT22;23135;51.078;12.108;2023-03-11T08:55:15;1.10;99.90
37242;DHT22;23135;51.078;12.108;2023-03-11T08:57:43;1.00;99.90
37242;DHT22;23135;51.078;12.108;2023-03-11T09:00:09;1.10;99.90
37242;DHT22;23135;51.078;12.108;2023-03-11T09:02:36;1.20;99.90
37242;DHT22;23135;51.078;12.108;2023-03-11T09:05:02;1.30;99.90
37242;DHT22;23135;51.078;12.108;2023-03-11T09:07:28;1.30;99.90
37242;DHT22;23135;51.078;12.108;2023-03-11T09:09:53;1.40;99.90
37242;DHT22;23135;51.078;12.108;2023-03-11T09:12:19;1.50;99.90
37242;DHT22;23135;51.078;12.108;2023-03-11T09:14:45;1.50;99.90
37242;DHT22;23135;51.078;12.108;2023-03-11T09:17:10;1.40;99.90
37242;DHT22;23135;51.078;12.108;2023-03-11T09:19:37;1.40;99.90
37242;DHT22;23135;51.078;12.108;2023-03-11T09:22:03;1.50;99.90
37242;DHT22;23135;51.078;12.108;2023-03-11T09:24:32;1.60;99.90
37242;DHT22;23135;51.078;12.108;2023-03-11T09:26:58;1.70;99.90
37242;DHT22;23135;51.078;12.108;2023-03-11T09:29:24;2.00;99.90
37242;DHT22;23135;51.078;12.108;2023-03-11T09:31:49;2.00;99.90
37242;DHT22;23135;51.078;12.108;2023-03-11T09:34:15;1.90;99.90
37242;DHT22;23135;51.078;12.108;2023-03-11T09:36:41;1.90;99.90
37242;DHT22;23135;51.078;12.108;2023-03-11T09:39:07;1.80;99.90
37242;DHT22;23135;51.078;12.108;2023-03-11T09:41:55;1.80;99.90
37242;DHT22;23135;51.078;12.108;2023-03-11T09:47:32;2.10;99.90
37242;DHT22;23135;51.078;12.108;2023-03-11T09:50:19;2.20;99.90
37242;DHT22;23135;51.078;12.108;2023-03-11T09:55:47;2.70;99.90
37242;DHT22;23135;51.078;12.108;2023-03-11T09:58:18;2.50;99.90
37242;DHT22;23135;51.078;12.108;2023-03-11T10:00:46;2.40;99.90
37242;DHT22;23135;51.078;12.108;2023-03-11T10:06:00;2.20;99.90
37242;DHT22;23135;51.078;12.108;2023-03-11T10:08:35;2.20;99.90
37242;DHT22;23135;51.078;12.108;2023-03-11T10:13:50;2.10;99.90
37242;DHT22;23135;51.078;12.108;2023-03-11T10:16:23;2.00;99.90
37242;DHT22;23135;51.078;12.108;2023-03-11T10:19:06;2.00;99.90
37242;DHT22;23135;51.078;12.108;2023-03-11T10:24:27;1.80;99.90
37242;DHT22;23135;51.078;12.108;2023-03-11T10:27:02;1.80;99.90
37242;DHT22;23135;51.078;12.108;2023-03-11T10:32:14;1.70;99.90
37242;DHT22;23135;51.078;12.108;2023-03-11T10:34:55;1.80;99.90
37242;DHT22;23135;51.078;12.108;2023-03-11T10:37:26;2.10;99.90
37242;DHT22;23135;51.078;12.108;2023-03-11T10:39:53;2.20;99.90
37242;DHT22;23135;51.078;12.108;2023-03-11T10:42:22;2.20;99.90
37242;DHT22;23135;51.078;12.108;2023-03-11T10:44:49;2.40;99.90
37242;DHT22;23135;51.078;12.108;2023-03-11T10:47:22;2.40;99.90
37242;DHT22;23135;51.078;12.108;2023-03-11T10:49:49;2.50;99.90
37242;DHT22;23135;51.078;12.108;2023-03-11T10:52:14;2.60;99.90
37242;DHT22;23135;51.078;12.108;2023-03-11T10:54:46;2.40;99.90
37242;DHT22;23135;51.078;12.108;2023-03-11T10:57:54;2.40;99.90
37242;DHT22;23135;51.078;12.108;2023-03-11T11:00:28;2.30;99.90
37242;DHT22;23135;51.078;12.108;2023-03-11T11:02:54;2.10;99.90
37242;DHT22;23135;51.078;12.108;2023-03-11T11:05:30;2.00;99.90
37242;DHT22;23135;51.078;12.108;2023-03-11T11:08:13;1.90;99.90
37242;DHT22;23135;51.078;12.108;2023-03-11T11:10:54;1.80;99.90
37242;DHT22;23135;51.078;12.108;2023-03-11T11:13:23;1.80;99.90
37242;DHT22;23135;51.078;12.108;2023-03-11T11:16:30;1.80;99.90
37242;DHT22;23135;51.078;12.108;2023-03-11T11:18:58;1.90;99.90
37242;DHT22;23135;51.078;12.108;2023-03-11T11:21:46;1.90;99.90
37242;DHT22;23135;51.078;12.108;2023-03-11T11:24:19;1.90;99.90
37242;DHT22;23135;51.078;12.108;2023-03-11T11:27:20;1.90;99.90
37242;DHT22;23135;51.078;12.108;2023-03-11T11:29:47;1.90;99.90
37242;DHT22;23135;51.078;12.108;2023-03-11T11:32:26;2.10;99.90
37242;DHT22;23135;51.078;12.108;2023-03-11T11:35:01;2.10;99.90
37242;DHT22;23135;51.078;12.108;2023-03-11T11:37:30;2.30;99.90
37242;DHT22;23135;51.078;12.108;2023-03-11T11:40:23;2.40;99.90
37242;DHT22;23135;51.078;12.108;2023-03-11T11:42:51;2.40;99.90
37242;DHT22;23135;51.078;12.108;2023-03-11T11:45:36;2.40;99.90
37242;DHT22;23135;51.078;12.108;2023-03-11T11:48:16;2.20;99.90
37242;DHT22;23135;51.078;12.108;2023-03-11T11:50:56;2.10;99.90
37242;DHT22;23135;51.078;12.108;2023-03-11T11:53:48;2.00;99.90
37242;DHT22;23135;51.078;12.108;2023-03-11T11:56:16;1.90;99.90
37242;DHT22;23135;51.078;12.108;2023-03-11T11:58:42;1.80;99.90
37242;DHT22;23135;51.078;12.108;2023-03-11T12:01:48;1.80;99.90
37242;DHT22;23135;51.078;12.108;2023-03-11T12:04:37;1.80;99.90
37242;DHT22;23135;51.078;12.108;2023-03-11T12:07:20;2.00;99.90
37242;DHT22;23135;51.078;12.108;2023-03-11T12:09:55;2.10;99.90
37242;DHT22;23135;51.078;12.108;2023-03-11T12:15:09;2.30;99.90
37242;DHT22;23135;51.078;12.108;2023-03-11T12:17:40;2.20;99.90
37242;DHT22;23135;51.078;12.108;2023-03-11T12:20:21;2.20;99.90
37242;DHT22;23135;51.078;12.108;2023-03-11T12:25:40;2.70;99.90
37242;DHT22;23135;51.078;12.108;2023-03-11T12:28:20;2.80;99.90
37242;DHT22;23135;51.078;12.108;2023-03-11T12:30:54;2.60;99.90
37242;DHT22;23135;51.078;12.108;2023-03-11T12:33:33;2.50;99.90
37242;DHT22;23135;51.078;12.108;2023-03-11T12:36:02;2.50;99.90
37242;DHT22;23135;51.078;12.108;2023-03-11T12:38:45;2.40;99.90
37242;DHT22;23135;51.078;12.108;2023-03-11T12:41:27;2.50;99.90
37242;DHT22;23135;51.078;12.108;2023-03-11T12:43:59;2.50;99.90
37242;DHT22;23135;51.078;12.108;2023-03-11T12:49:24;2.60;99.90
37242;DHT22;23135;51.078;12.108;2023-03-11T12:54:45;2.80;99.90
37242;DHT22;23135;51.078;12.108;2023-03-11T13:08:50;2.60;99.90
37242;DHT22;23135;51.078;12.108;2023-03-11T13:16:41;2.60;99.90
37242;DHT22;23135;51.078;12.108;2023-03-11T13:21:53;2.60;99.90
37242;DHT22;23135;51.078;12.108;2023-03-11T13:27:11;2.60;99.90
37242;DHT22;23135;51.078;12.108;2023-03-11T13:37:41;3.00;99.90
37242;DHT22;23135;51.078;12.108;2023-03-11T13:42:48;3.30;99.90
37242;DHT22;23135;51.078;12.108;2023-03-11T13:45:29;3.40;99.90
37242;DHT22;23135;51.078;12.108;2023-03-11T13:48:23;3.80;99.90
37242;DHT22;23135;51.078;12.108;2023-03-11T13:53:58;3.50;99.90
37242;DHT22;23135;51.078;12.108;2023-03-11T13:56:29;3.40;99.90
37242;DHT22;23135;51.078;12.108;2023-03-11T13:59:21;3.40;99.90
37242;DHT22;23135;51.078;12.108;2023-03-11T14:01:51;3.60;99.90
37242;DHT22;23135;51.078;12.108;2023-03-11T14:04:34;4.10;99.90
37242;DHT22;23135;51.078;12.108;2023-03-11T14:07:11;4.10;99.90
37242;DHT22;23135;51.078;12.108;2023-03-11T14:09:37;3.80;99.90
37242;DHT22;23135;51.078;12.108;2023-03-11T14:12:04;3.50;99.90
37242;DHT22;23135;51.078;12.108;2023-03-11T14:14:51;3.30;99.90
37242;DHT22;23135;51.078;12.108;2023-03-11T14:17:19;3.20;99.90
37242;DHT22;23135;51.078;12.108;2023-03-11T14:22:31;3.10;99.90
37242;DHT22;23135;51.078;12.108;2023-03-11T14:25:04;3.10;99.90
37242;DHT22;23135;51.078;12.108;2023-03-11T14:27:30;3.20;99.90
37242;DHT22;23135;51.078;12.108;2023-03-11T14:29:56;3.20;99.90
37242;DHT22;23135;51.078;12.108;2023-03-11T14:32:33;3.50;99.90
37242;DHT22;23135;51.078;12.108;2023-03-11T14:34:59;3.60;99.90
37242;DHT22;23135;51.078;12.108;2023-03-11T14:39:50;3.50;99.90
37242;DHT22;23135;51.078;12.108;2023-03-11T14:42:37;3.60;99.90
37242;DHT22;23135;51.078;12.108;2023-03-11T14:45:16;3.80;99.90
37242;DHT22;23135;51.078;12.108;2023-03-11T14:48:05;4.00;99.90
37242;DHT22;23135;51.078;12.108;2023-03-11T14:50:34;4.00;99.90
37242;DHT22;23135;51.078;12.108;2023-03-11T14:53:14;4.40;99.90
37242;DHT22;23135;51.078;12.108;2023-03-11T14:55:47;4.80;99.90
37242;DHT22;23135;51.078;12.108;2023-03-11T15:01:18;4.20;99.90
37242;DHT22;23135;51.078;12.108;2023-03-11T15:03:51;4.10;99.90
37242;DHT22;23135;51.078;12.108;2023-03-11T15:06:22;4.00;99.90
37242;DHT22;23135;51.078;12.108;2023-03-11T15:08:55;3.90;99.90
37242;DHT22;23135;51.078;12.108;2023-03-11T15:11:24;3.80;99.90
37242;DHT22;23135;51.078;12.108;2023-03-11T15:13:53;3.70;99.90
37242;DHT22;23135;51.078;12.108;2023-03-11T15:18:55;3.50;99.90
37242;DHT22;23135;51.078;12.108;2023-03-11T15:21:23;3.30;99.90
37242;DHT22;23135;51.078;12.108;2023-03-11T15:23:58;3.30;99.90
37242;DHT22;23135;51.078;12.108;2023-03-11T15:26:29;3.30;99.90
37242;DHT22;23135;51.078;12.108;2023-03-11T15:29:03;3.20;99.90
37242;DHT22;23135;51.078;12.108;2023-03-11T15:31:36;3.20;99.90
37242;DHT22;23135;51.078;12.108;2023-03-11T15:42:12;3.20;99.90
37242;DHT22;23135;51.078;12.108;2023-03-11T15:44:41;3.20;99.90
37242;DHT22;23135;51.078;12.108;2023-03-11T15:47:16;3.10;99.90
37242;DHT22;23135;51.078;12.108;2023-03-11T15:49:42;3.10;99.90
37242;DHT22;23135;51.078;12.108;2023-03-11T15:52:08;3.10;99.90
37242;DHT22;23135;51.078;12.108;2023-03-11T15:54:34;3.00;99.90
37242;DHT22;23135;51.078;12.108;2023-03-11T15:57:00;3.00;99.90
37242;DHT22;23135;51.078;12.108;2023-03-11T15:59:27;2.90;99.90
37242;DHT22;23135;51.078;12.108;2023-03-11T16:01:53;2.90;99.90
37242;DHT22;23135;51.078;12.108;2023-03-11T16:04:20;2.90;99.90
37242;DHT22;23135;51.078;12.108;2023-03-11T16:06:47;2.90;99.90
37242;DHT22;23135;51.078;12.108;2023-03-11T16:09:14;2.90;99.90
37242;DHT22;23135;51.078;12.108;2023-03-11T16:11:40;2.80;99.90
37242;DHT22;23135;51.078;12.108;2023-03-11T16:14:13;2.80;99.90
37242;DHT22;23135;51.078;12.108;2023-03-11T16:16:39;2.70;99.90
37242;DHT22;23135;51.078;12.108;2023-03-11T16:19:05;2.80;99.90
37242;DHT22;23135;51.078;12.108;2023-03-11T16:21:38;2.80;99.90
37242;DHT22;23135;51.078;12.108;2023-03-11T16:24:05;2.80;99.90
37242;DHT22;23135;51.078;12.108;2023-03-11T16:26:31;2.90;99.90
37242;DHT22;23135;51.078;12.108;2023-03-11T16:28:57;2.80;99.90
37242;DHT22;23135;51.078;12.108;2023-03-11T16:31:23;2.80;99.90
37242;DHT22;23135;51.078;12.108;2023-03-11T16:33:48;2.80;99.90
37242;DHT22;23135;51.078;12.108;2023-03-11T16:36:14;2.80;99.90
37242;DHT22;23135;51.078;12.108;2023-03-11T16:38:46;2.70;99.90
37242;DHT22;23135;51.078;12.108;2023-03-11T16:41:11;2.60;99.90
37242;DHT22;23135;51.078;12.108;2023-03-11T16:43:37;2.50;99.90
37242;DHT22;23135;51.078;12.108;2023-03-11T16:46:03;2.40;99.90
37242;DHT22;23135;51.078;12.108;2023-03-11T16:48:29;2.30;99.90
37242;DHT22;23135;51.078;12.108;2023-03-11T16:50:54;2.30;99.90
37242;DHT22;23135;51.078;12.108;2023-03-11T16:53:20;2.20;99.90
37242;DHT22;23135;51.078;12.108;2023-03-11T16:55:46;2.10;99.90
37242;DHT22;23135;51.078;12.108;2023-03-11T16:58:13;2.00;99.90
37242;DHT22;23135;51.078;12.108;2023-03-11T17:00:39;1.90;99.90
37242;DHT22;23135;51.078;12.108;2023-03-11T17:03:07;1.90;99.90
37242;DHT22;23135;51.078;12.108;2023-03-11T17:05:33;1.70;99.90
37242;DHT22;23135;51.078;12.108;2023-03-11T17:07:58;1.60;99.90
37242;DHT22;23135;51.078;12.108;2023-03-11T17:10:34;1.60;99.90
37242;DHT22;23135;51.078;12.108;2023-03-11T17:13:00;1.60;99.90